sensor_id;sensor_type;location;lat;lon;timestamp;temperature;humidity
17956;DHT22;27666;51.498;11.966;2023-08-06T00:02:01;18.60;99.90
17956;DHT22;27666;51.498;11.966;2023-08-06T00:04:48;18.60;99.90
17956;DHT22;27666;51.498;11.966;2023-08-06T00:07:35;18.60;99.90
17956;DHT22;27666;51.498;11.966;2023-08-06T00:10:22;18.50;99.90
17956;DHT22;27666;51.498;11.966;2023-08-06T00:13:08;18.60;99.90
17956;DHT22;27666;51.498;11.966;2023-08-06T00:15:55;18.50;99.90
17956;DHT22;27666;51.498;11.966;2023-08-06T00:18:41;18.50;99.90
17956;DHT22;27666;51.498;11.966;2023-08-06T00:21:29;18.50;99.90
17956;DHT22;27666;51.498;11.966;2023-08-06T00:24:17;18.50;99.90
17956;DHT22;27666;51.498;11.966;2023-08-06T00:27:03;18.60;99.90
17956;DHT22;27666;51.498;11.966;2023-08-06T00:29:50;18.60;99.90
17956;DHT22;27666;51.498;11.966;2023-08-06T00:32:37;18.60;99.90
17956;DHT22;27666;51.498;11.966;2023-08-06T00:35:23;18.80;99.90
17956;DHT22;27666;51.498;11.966;2023-08-06T00:38:11;19.00;99.90
17956;DHT22;27666;51.498;11.966;2023-08-06T00:40:58;19.10;99.90
17956;DHT22;27666;51.498;11.966;2023-08-06T00:43:44;19.10;99.90
17956;DHT22;27666;51.498;11.966;2023-08-06T00:46:31;19.10;99.90
17956;DHT22;27666;51.498;11.966;2023-08-06T00:49:18;19.20;99.90
17956;DHT22;27666;51.498;11.966;2023-08-06T00:52:07;19.20;99.90
17956;DHT22;27666;51.498;11.966;2023-08-06T00:54:58;19.20;99.90
17956;DHT22;27666;51.498;11.966;2023-08-06T00:57:45;19.20;99.90
17956;DHT22;27666;51.498;11.966;2023-08-06T01:00:32;19.10;99.90
17956;DHT22;27666;51.498;11.966;2023-08-06T01:03:18;19.10;99.90
17956;DHT22;27666;51.498;11.966;2023-08-06T01:06:06;19.10;99.90
17956;DHT22;27666;51.498;11.966;2023-08-06T01:08:56;19.40;99.90
17956;DHT22;27666;51.498;11.966;2023-08-06T01:11:53;19.80;99.90
17956;DHT22;27666;51.498;11.966;2023-08-06T01:14:48;20.00;99.90
17956;DHT22;27666;51.498;11.966;2023-08-06T01:17:39;20.10;99.90
17956;DHT22;27666;51.498;11.966;2023-08-06T01:20:30;20.00;99.90
17956;DHT22;27666;51.498;11.966;2023-08-06T01:23:24;20.00;99.90
17956;DHT22;27666;51.498;11.966;2023-08-06T01:26:23;19.70;99.90
17956;DHT22;27666;51.498;11.966;2023-08-06T01:29:17;19.30;99.90
17956;DHT22;27666;51.498;11.966;2023-08-06T01:32:05;18.90;99.90
17956;DHT22;27666;51.498;11.966;2023-08-06T01:34:54;18.50;99.90
17956;DHT22;27666;51.498;11.966;2023-08-06T01:37:43;18.10;99.90
17956;DHT22;27666;51.498;11.966;2023-08-06T01:40:30;17.90;99.90
17956;DHT22;27666;51.498;11.966;2023-08-06T01:43:17;17.70;99.90
17956;DHT22;27666;51.498;11.966;2023-08-06T01:46:04;17.60;99.90
17956;DHT22;27666;51.498;11.966;2023-08-06T01:48:50;17.40;99.90
17956;DHT22;27666;51.498;11.966;2023-08-06T01:51:37;17.30;99.90
17956;DHT22;27666;51.498;11.966;2023-08-06T01:54:25;17.30;99.90
17956;DHT22;27666;51.498;11.966;2023-08-06T01:57:13;17.20;99.90
17956;DHT22;27666;51.498;11.966;2023-08-06T01:59:59;17.40;99.90
17956;DHT22;27666;51.498;11.966;2023-08-06T02:02:46;17.50;99.90
17956;DHT22;27666;51.498;11.966;2023-08-06T02:05:36;17.60;99.90
17956;DHT22;27666;51.498;11.966;2023-08-06T02:08:22;17.70;99.90
17956;DHT22;27666;51.498;11.966;2023-08-06T02:11:11;17.70;99.90
17956;DHT22;27666;51.498;11.966;2023-08-06T02:13:58;17.80;99.90
17956;DHT22;27666;51.498;11.966;2023-08-06T02:16:44;17.80;99.90
17956;DHT22;27666;51.498;11.966;2023-08-06T02:19:32;17.80;99.90
17956;DHT22;27666;51.498;11.966;2023-08-06T02:22:20;17.80;99.90
17956;DHT22;27666;51.498;11.966;2023-08-06T02:25:07;17.80;99.90
17956;DHT22;27666;51.498;11.966;2023-08-06T02:27:55;17.80;99.90
17956;DHT22;27666;51.498;11.966;2023-08-06T02:30:49;17.70;99.90
17956;DHT22;27666;51.498;11.966;2023-08-06T02:33:36;17.70;99.90
17956;DHT22;27666;51.498;11.966;2023-08-06T02:36:23;17.60;99.90
17956;DHT22;27666;51.498;11.966;2023-08-06T02:39:09;17.40;99.90
17956;DHT22;27666;51.498;11.966;2023-08-06T02:41:56;17.30;99.90
17956;DHT22;27666;51.498;11.966;2023-08-06T02:44:43;17.30;99.90
17956;DHT22;27666;51.498;11.966;2023-08-06T02:47:30;17.30;99.90
17956;DHT22;27666;51.498;11.966;2023-08-06T02:50:17;17.20;99.90
17956;DHT22;27666;51.498;11.966;2023-08-06T02:53:05;17.30;99.90
17956;DHT22;27666;51.498;11.966;2023-08-06T02:55:52;17.20;99.90
17956;DHT22;27666;51.498;11.966;2023-08-06T02:58:40;17.20;99.90
17956;DHT22;27666;51.498;11.966;2023-08-06T03:01:27;17.20;99.90
17956;DHT22;27666;51.498;11.966;2023-08-06T03:04:14;17.00;99.90
17956;DHT22;27666;51.498;11.966;2023-08-06T03:07:04;17.10;99.90
17956;DHT22;27666;51.498;11.966;2023-08-06T03:09:50;17.10;99.90
17956;DHT22;27666;51.498;11.966;2023-08-06T03:12:37;17.00;99.90
17956;DHT22;27666;51.498;11.966;2023-08-06T03:15:23;17.00;99.90
17956;DHT22;27666;51.498;11.966;2023-08-06T03:18:11;17.00;99.90
17956;DHT22;27666;51.498;11.966;2023-08-06T03:20:58;17.10;99.90
17956;DHT22;27666;51.498;11.966;2023-08-06T03:23:47;17.10;99.90
17956;DHT22;27666;51.498;11.966;2023-08-06T03:26:34;17.10;99.90
17956;DHT22;27666;51.498;11.966;2023-08-06T03:29:20;17.00;99.90
17956;DHT22;27666;51.498;11.966;2023-08-06T03:32:07;17.00;99.90
17956;DHT22;27666;51.498;11.966;2023-08-06T03:34:55;17.00;99.90
17956;DHT22;27666;51.498;11.966;2023-08-06T03:37:42;17.00;99.90
17956;DHT22;27666;51.498;11.966;2023-08-06T03:40:28;17.00;99.90
17956;DHT22;27666;51.498;11.966;2023-08-06T03:43:15;16.90;99.90
17956;DHT22;27666;51.498;11.966;2023-08-06T03:46:02;17.00;99.90
17956;DHT22;27666;51.498;11.966;2023-08-06T03:48:48;17.00;99.90
17956;DHT22;27666;51.498;11.966;2023-08-06T03:51:36;17.00;99.90
17956;DHT22;27666;51.498;11.966;2023-08-06T03:54:23;17.10;99.90
17956;DHT22;27666;51.498;11.966;2023-08-06T03:57:09;17.20;99.90
17956;DHT22;27666;51.498;11.966;2023-08-06T03:59:56;17.20;99.90
17956;DHT22;27666;51.498;11.966;2023-08-06T04:02:42;17.30;99.90
17956;DHT22;27666;51.498;11.966;2023-08-06T04:05:31;17.40;99.90
17956;DHT22;27666;51.498;11.966;2023-08-06T04:08:19;17.40;99.90
17956;DHT22;27666;51.498;11.966;2023-08-06T04:11:05;17.40;99.90
17956;DHT22;27666;51.498;11.966;2023-08-06T04:13:52;17.50;99.90
17956;DHT22;27666;51.498;11.966;2023-08-06T04:16:39;17.50;99.90
17956;DHT22;27666;51.498;11.966;2023-08-06T04:19:26;17.50;99.90
17956;DHT22;27666;51.498;11.966;2023-08-06T04:22:12;17.50;99.90
17956;DHT22;27666;51.498;11.966;2023-08-06T04:25:00;17.60;99.90
17956;DHT22;27666;51.498;11.966;2023-08-06T04:27:47;17.60;99.90
17956;DHT22;27666;51.498;11.966;2023-08-06T04:30:34;17.70;99.90
17956;DHT22;27666;51.498;11.966;2023-08-06T04:33:20;17.70;99.90
17956;DHT22;27666;51.498;11.966;2023-08-06T04:36:07;17.80;99.90
17956;DHT22;27666;51.498;11.966;2023-08-06T04:38:54;17.70;99.90
17956;DHT22;27666;51.498;11.966;2023-08-06T04:41:42;17.70;99.90
17956;DHT22;27666;51.498;11.966;2023-08-06T04:44:29;17.70;99.90
17956;DHT22;27666;51.498;11.966;2023-08-06T04:47:15;17.70;99.90
17956;DHT22;27666;51.498;11.966;2023-08-06T04:50:03;17.70;99.90
17956;DHT22;27666;51.498;11.966;2023-08-06T04:52:49;17.70;99.90
17956;DHT22;27666;51.498;11.966;2023-08-06T04:55:36;17.70;99.90
17956;DHT22;27666;51.498;11.966;2023-08-06T04:58:23;17.70;99.90
17956;DHT22;27666;51.498;11.966;2023-08-06T05:01:10;17.70;99.90
17956;DHT22;27666;51.498;11.966;2023-08-06T05:03:56;17.70;99.90
17956;DHT22;27666;51.498;11.966;2023-08-06T05:06:43;17.70;99.90
17956;DHT22;27666;51.498;11.966;2023-08-06T05:09:29;17.80;99.90
17956;DHT22;27666;51.498;11.966;2023-08-06T05:12:16;17.80;99.90
17956;DHT22;27666;51.498;11.966;2023-08-06T05:15:07;17.80;99.90
17956;DHT22;27666;51.498;11.966;2023-08-06T05:17:53;17.80;99.90
17956;DHT22;27666;51.498;11.966;2023-08-06T05:20:41;17.80;99.90
17956;DHT22;27666;51.498;11.966;2023-08-06T05:23:27;17.90;99.90
17956;DHT22;27666;51.498;11.966;2023-08-06T05:26:14;17.90;99.90
17956;DHT22;27666;51.498;11.966;2023-08-06T05:29:03;17.90;99.90
17956;DHT22;27666;51.498;11.966;2023-08-06T05:31:51;18.00;99.90
17956;DHT22;27666;51.498;11.966;2023-08-06T05:34:39;18.00;99.90
17956;DHT22;27666;51.498;11.966;2023-08-06T05:37:26;18.00;99.90
17956;DHT22;27666;51.498;11.966;2023-08-06T05:40:13;18.10;99.90
17956;DHT22;27666;51.498;11.966;2023-08-06T05:42:59;18.10;99.90
17956;DHT22;27666;51.498;11.966;2023-08-06T05:45:46;18.20;99.90
17956;DHT22;27666;51.498;11.966;2023-08-06T05:48:34;18.20;99.90
17956;DHT22;27666;51.498;11.966;2023-08-06T05:51:20;18.20;99.90
17956;DHT22;27666;51.498;11.966;2023-08-06T05:54:07;18.30;99.90
17956;DHT22;27666;51.498;11.966;2023-08-06T05:56:55;18.30;99.90
17956;DHT22;27666;51.498;11.966;2023-08-06T05:59:42;18.30;99.90
17956;DHT22;27666;51.498;11.966;2023-08-06T06:02:29;18.40;99.90
17956;DHT22;27666;51.498;11.966;2023-08-06T06:05:17;18.40;99.90
17956;DHT22;27666;51.498;11.966;2023-08-06T06:08:03;18.50;99.90
17956;DHT22;27666;51.498;11.966;2023-08-06T06:10:50;18.50;99.90
17956;DHT22;27666;51.498;11.966;2023-08-06T06:13:36;18.50;99.90
17956;DHT22;27666;51.498;11.966;2023-08-06T06:16:23;18.50;99.90
17956;DHT22;27666;51.498;11.966;2023-08-06T06:19:10;18.50;99.90
17956;DHT22;27666;51.498;11.966;2023-08-06T06:21:58;18.60;99.90
17956;DHT22;27666;51.498;11.966;2023-08-06T06:24:44;18.60;99.90
17956;DHT22;27666;51.498;11.966;2023-08-06T06:27:31;18.70;99.90
17956;DHT22;27666;51.498;11.966;2023-08-06T06:30:17;18.80;99.90
17956;DHT22;27666;51.498;11.966;2023-08-06T06:33:04;18.90;99.90
17956;DHT22;27666;51.498;11.966;2023-08-06T06:35:50;18.90;99.90
17956;DHT22;27666;51.498;11.966;2023-08-06T06:38:38;19.00;99.90
17956;DHT22;27666;51.498;11.966;2023-08-06T06:41:24;19.00;99.90
17956;DHT22;27666;51.498;11.966;2023-08-06T06:44:12;19.00;99.90
17956;DHT22;27666;51.498;11.966;2023-08-06T06:47:00;19.10;99.90
17956;DHT22;27666;51.498;11.966;2023-08-06T06:49:46;19.10;99.90
17956;DHT22;27666;51.498;11.966;2023-08-06T06:55:21;19.30;99.90
17956;DHT22;27666;51.498;11.966;2023-08-06T06:58:08;19.40;99.90
17956;DHT22;27666;51.498;11.966;2023-08-06T07:00:54;19.50;99.90
17956;DHT22;27666;51.498;11.966;2023-08-06T07:03:41;19.50;99.90
17956;DHT22;27666;51.498;11.966;2023-08-06T07:06:27;19.60;99.90
17956;DHT22;27666;51.498;11.966;2023-08-06T07:09:18;19.60;99.90
17956;DHT22;27666;51.498;11.966;2023-08-06T07:12:07;19.70;99.90
17956;DHT22;27666;51.498;11.966;2023-08-06T07:14:53;19.80;99.90
17956;DHT22;27666;51.498;11.966;2023-08-06T07:17:40;19.80;99.90
17956;DHT22;27666;51.498;11.966;2023-08-06T07:20:27;19.90;99.90
17956;DHT22;27666;51.498;11.966;2023-08-06T07:23:14;19.90;99.90
17956;DHT22;27666;51.498;11.966;2023-08-06T07:26:05;19.90;99.90
17956;DHT22;27666;51.498;11.966;2023-08-06T07:28:55;20.10;99.90
17956;DHT22;27666;51.498;11.966;2023-08-06T07:31:42;20.10;99.90
17956;DHT22;27666;51.498;11.966;2023-08-06T07:34:28;20.30;99.90
17956;DHT22;27666;51.498;11.966;2023-08-06T07:37:15;20.40;99.90
17956;DHT22;27666;51.498;11.966;2023-08-06T07:40:02;20.50;99.90
17956;DHT22;27666;51.498;11.966;2023-08-06T07:42:50;20.60;99.90
17956;DHT22;27666;51.498;11.966;2023-08-06T07:45:37;20.70;99.90
17956;DHT22;27666;51.498;11.966;2023-08-06T07:48:24;20.80;99.90
17956;DHT22;27666;51.498;11.966;2023-08-06T07:51:11;20.90;99.90
17956;DHT22;27666;51.498;11.966;2023-08-06T07:53:57;20.90;99.90
17956;DHT22;27666;51.498;11.966;2023-08-06T07:56:44;21.00;99.90
17956;DHT22;27666;51.498;11.966;2023-08-06T07:59:30;21.10;99.90
17956;DHT22;27666;51.498;11.966;2023-08-06T08:02:19;21.20;99.90
17956;DHT22;27666;51.498;11.966;2023-08-06T08:05:07;21.30;99.90
17956;DHT22;27666;51.498;11.966;2023-08-06T08:07:53;21.40;99.90
17956;DHT22;27666;51.498;11.966;2023-08-06T08:10:42;21.50;99.90
17956;DHT22;27666;51.498;11.966;2023-08-06T08:13:28;21.50;99.90
17956;DHT22;27666;51.498;11.966;2023-08-06T08:16:15;21.50;99.90
17956;DHT22;27666;51.498;11.966;2023-08-06T08:19:02;21.50;99.90
17956;DHT22;27666;51.498;11.966;2023-08-06T08:21:49;21.50;99.90
17956;DHT22;27666;51.498;11.966;2023-08-06T08:24:37;21.50;99.90
17956;DHT22;27666;51.498;11.966;2023-08-06T08:27:24;21.50;99.90
17956;DHT22;27666;51.498;11.966;2023-08-06T08:30:11;21.50;99.90
17956;DHT22;27666;51.498;11.966;2023-08-06T08:33:03;21.50;99.90
17956;DHT22;27666;51.498;11.966;2023-08-06T08:35:52;21.60;99.90
17956;DHT22;27666;51.498;11.966;2023-08-06T08:38:38;21.60;99.90
17956;DHT22;27666;51.498;11.966;2023-08-06T08:41:27;21.70;99.90
17956;DHT22;27666;51.498;11.966;2023-08-06T08:44:16;21.70;99.90
17956;DHT22;27666;51.498;11.966;2023-08-06T08:47:03;21.90;99.90
17956;DHT22;27666;51.498;11.966;2023-08-06T08:49:52;22.00;99.90
17956;DHT22;27666;51.498;11.966;2023-08-06T08:52:42;22.10;99.90
17956;DHT22;27666;51.498;11.966;2023-08-06T08:55:31;22.40;99.90
17956;DHT22;27666;51.498;11.966;2023-08-06T08:58:18;22.70;99.90
17956;DHT22;27666;51.498;11.966;2023-08-06T09:01:05;22.90;99.90
17956;DHT22;27666;51.498;11.966;2023-08-06T09:03:53;23.20;99.90
17956;DHT22;27666;51.498;11.966;2023-08-06T09:06:41;23.40;99.90
17956;DHT22;27666;51.498;11.966;2023-08-06T09:12:18;23.70;99.90
17956;DHT22;27666;51.498;11.966;2023-08-06T09:15:06;23.70;99.90
17956;DHT22;27666;51.498;11.966;2023-08-06T09:17:53;23.80;99.90
17956;DHT22;27666;51.498;11.966;2023-08-06T09:20:40;23.90;99.90
17956;DHT22;27666;51.498;11.966;2023-08-06T09:23:30;23.80;99.90
17956;DHT22;27666;51.498;11.966;2023-08-06T09:26:20;23.70;99.90
17956;DHT22;27666;51.498;11.966;2023-08-06T09:29:07;23.80;99.90
17956;DHT22;27666;51.498;11.966;2023-08-06T09:31:53;23.80;99.90
17956;DHT22;27666;51.498;11.966;2023-08-06T09:34:42;23.90;99.90
17956;DHT22;27666;51.498;11.966;2023-08-06T09:37:35;23.90;99.90
17956;DHT22;27666;51.498;11.966;2023-08-06T09:40:25;23.90;99.90
17956;DHT22;27666;51.498;11.966;2023-08-06T09:43:13;24.00;99.90
17956;DHT22;27666;51.498;11.966;2023-08-06T09:46:00;24.20;99.90
17956;DHT22;27666;51.498;11.966;2023-08-06T09:48:47;24.50;99.90
17956;DHT22;27666;51.498;11.966;2023-08-06T09:51:34;24.80;99.90
17956;DHT22;27666;51.498;11.966;2023-08-06T09:54:22;24.80;99.90
17956;DHT22;27666;51.498;11.966;2023-08-06T09:57:12;24.80;99.90
17956;DHT22;27666;51.498;11.966;2023-08-06T10:00:00;25.00;99.90
17956;DHT22;27666;51.498;11.966;2023-08-06T10:02:47;25.00;99.90
17956;DHT22;27666;51.498;11.966;2023-08-06T10:05:35;25.10;99.90
17956;DHT22;27666;51.498;11.966;2023-08-06T10:08:23;25.20;99.90
17956;DHT22;27666;51.498;11.966;2023-08-06T10:11:09;25.30;99.90
17956;DHT22;27666;51.498;11.966;2023-08-06T10:14:02;25.40;99.90
17956;DHT22;27666;51.498;11.966;2023-08-06T10:16:52;25.50;99.90
17956;DHT22;27666;51.498;11.966;2023-08-06T10:19:39;25.60;99.90
17956;DHT22;27666;51.498;11.966;2023-08-06T10:22:26;25.80;99.90
17956;DHT22;27666;51.498;11.966;2023-08-06T10:25:17;25.90;99.90
17956;DHT22;27666;51.498;11.966;2023-08-06T10:28:08;26.00;99.90
17956;DHT22;27666;51.498;11.966;2023-08-06T10:30:55;26.10;99.90
17956;DHT22;27666;51.498;11.966;2023-08-06T10:33:44;26.20;99.90
17956;DHT22;27666;51.498;11.966;2023-08-06T10:36:31;26.30;99.90
17956;DHT22;27666;51.498;11.966;2023-08-06T10:42:20;26.70;99.90
17956;DHT22;27666;51.498;11.966;2023-08-06T10:45:17;26.80;99.90
17956;DHT22;27666;51.498;11.966;2023-08-06T10:48:04;27.00;98.70
17956;DHT22;27666;51.498;11.966;2023-08-06T10:50:52;27.10;97.90
17956;DHT22;27666;51.498;11.966;2023-08-06T10:53:43;26.80;98.30
17956;DHT22;27666;51.498;11.966;2023-08-06T10:56:30;26.80;98.30
17956;DHT22;27666;51.498;11.966;2023-08-06T10:59:16;26.60;98.10
17956;DHT22;27666;51.498;11.966;2023-08-06T11:02:03;26.60;98.00
17956;DHT22;27666;51.498;11.966;2023-08-06T11:04:50;26.60;98.10
17956;DHT22;27666;51.498;11.966;2023-08-06T11:07:38;26.60;98.30
17956;DHT22;27666;51.498;11.966;2023-08-06T11:10:25;26.50;97.00
17956;DHT22;27666;51.498;11.966;2023-08-06T11:13:11;26.60;95.90
17956;DHT22;27666;51.498;11.966;2023-08-06T11:16:03;26.60;98.80
17956;DHT22;27666;51.498;11.966;2023-08-06T11:18:49;26.60;97.30
17956;DHT22;27666;51.498;11.966;2023-08-06T11:21:35;26.70;96.80
17956;DHT22;27666;51.498;11.966;2023-08-06T11:24:25;26.70;96.60
17956;DHT22;27666;51.498;11.966;2023-08-06T11:27:12;26.80;94.50
17956;DHT22;27666;51.498;11.966;2023-08-06T11:29:59;26.80;94.40
17956;DHT22;27666;51.498;11.966;2023-08-06T11:32:46;26.90;94.60
17956;DHT22;27666;51.498;11.966;2023-08-06T11:35:34;26.90;94.50
17956;DHT22;27666;51.498;11.966;2023-08-06T11:38:24;27.00;92.80
17956;DHT22;27666;51.498;11.966;2023-08-06T11:41:13;26.80;92.10
17956;DHT22;27666;51.498;11.966;2023-08-06T11:44:00;26.70;92.80
17956;DHT22;27666;51.498;11.966;2023-08-06T11:46:50;26.60;94.40
17956;DHT22;27666;51.498;11.966;2023-08-06T11:49:39;26.20;95.50
17956;DHT22;27666;51.498;11.966;2023-08-06T11:52:26;26.00;95.90
17956;DHT22;27666;51.498;11.966;2023-08-06T11:55:13;25.80;95.50
17956;DHT22;27666;51.498;11.966;2023-08-06T11:58:04;25.70;95.60
17956;DHT22;27666;51.498;11.966;2023-08-06T12:00:50;25.60;96.10
17956;DHT22;27666;51.498;11.966;2023-08-06T12:03:39;25.70;98.30
17956;DHT22;27666;51.498;11.966;2023-08-06T12:06:27;25.90;97.00
17956;DHT22;27666;51.498;11.966;2023-08-06T12:09:13;25.70;95.90
17956;DHT22;27666;51.498;11.966;2023-08-06T12:12:03;25.60;95.70
17956;DHT22;27666;51.498;11.966;2023-08-06T12:14:51;25.70;95.70
17956;DHT22;27666;51.498;11.966;2023-08-06T12:17:38;25.50;95.10
17956;DHT22;27666;51.498;11.966;2023-08-06T12:20:25;25.10;94.60
17956;DHT22;27666;51.498;11.966;2023-08-06T12:26:00;24.70;95.00
17956;DHT22;27666;51.498;11.966;2023-08-06T12:28:46;24.60;96.20
17956;DHT22;27666;51.498;11.966;2023-08-06T12:31:36;24.50;96.30
17956;DHT22;27666;51.498;11.966;2023-08-06T12:34:23;24.60;97.00
17956;DHT22;27666;51.498;11.966;2023-08-06T12:37:13;24.70;96.80
17956;DHT22;27666;51.498;11.966;2023-08-06T12:39:59;24.80;97.20
17956;DHT22;27666;51.498;11.966;2023-08-06T12:43:06;24.80;97.00
17956;DHT22;27666;51.498;11.966;2023-08-06T12:45:52;24.80;96.70
17956;DHT22;27666;51.498;11.966;2023-08-06T12:48:40;24.90;96.40
17956;DHT22;27666;51.498;11.966;2023-08-06T12:51:27;25.00;96.20
17956;DHT22;27666;51.498;11.966;2023-08-06T12:54:13;25.10;95.40
17956;DHT22;27666;51.498;11.966;2023-08-06T12:56:59;25.40;94.20
17956;DHT22;27666;51.498;11.966;2023-08-06T12:59:46;25.50;94.00
17956;DHT22;27666;51.498;11.966;2023-08-06T13:02:35;25.70;93.70
17956;DHT22;27666;51.498;11.966;2023-08-06T13:05:23;25.60;93.30
17956;DHT22;27666;51.498;11.966;2023-08-06T13:08:10;25.30;93.80
17956;DHT22;27666;51.498;11.966;2023-08-06T13:10:57;25.30;94.40
17956;DHT22;27666;51.498;11.966;2023-08-06T13:13:43;25.30;94.40
17956;DHT22;27666;51.498;11.966;2023-08-06T13:16:30;25.40;94.70
17956;DHT22;27666;51.498;11.966;2023-08-06T13:19:16;25.40;94.90
17956;DHT22;27666;51.498;11.966;2023-08-06T13:22:04;25.30;95.10
17956;DHT22;27666;51.498;11.966;2023-08-06T13:24:53;25.30;95.30
17956;DHT22;27666;51.498;11.966;2023-08-06T13:27:40;25.30;95.50
17956;DHT22;27666;51.498;11.966;2023-08-06T13:30:26;25.20;95.50
17956;DHT22;27666;51.498;11.966;2023-08-06T13:33:13;25.20;96.00
17956;DHT22;27666;51.498;11.966;2023-08-06T13:35:59;25.10;95.50
17956;DHT22;27666;51.498;11.966;2023-08-06T13:38:47;25.20;94.60
17956;DHT22;27666;51.498;11.966;2023-08-06T13:41:34;25.30;94.70
17956;DHT22;27666;51.498;11.966;2023-08-06T13:44:20;25.50;94.00
17956;DHT22;27666;51.498;11.966;2023-08-06T13:47:07;25.50;94.40
17956;DHT22;27666;51.498;11.966;2023-08-06T13:49:54;25.60;94.00
17956;DHT22;27666;51.498;11.966;2023-08-06T13:52:40;25.30;93.50
17956;DHT22;27666;51.498;11.966;2023-08-06T13:55:28;25.30;94.20
17956;DHT22;27666;51.498;11.966;2023-08-06T13:58:14;25.30;93.60
17956;DHT22;27666;51.498;11.966;2023-08-06T14:01:01;25.00;94.00
17956;DHT22;27666;51.498;11.966;2023-08-06T14:03:47;24.90;94.60
17956;DHT22;27666;51.498;11.966;2023-08-06T14:06:34;24.90;94.70
17956;DHT22;27666;51.498;11.966;2023-08-06T14:09:20;24.90;93.90
17956;DHT22;27666;51.498;11.966;2023-08-06T14:12:09;24.60;93.80
17956;DHT22;27666;51.498;11.966;2023-08-06T14:14:55;24.40;94.20
17956;DHT22;27666;51.498;11.966;2023-08-06T14:17:41;24.40;94.30
17956;DHT22;27666;51.498;11.966;2023-08-06T14:20:28;24.30;94.30
17956;DHT22;27666;51.498;11.966;2023-08-06T14:23:16;24.30;94.10
17956;DHT22;27666;51.498;11.966;2023-08-06T14:26:02;24.40;94.70
17956;DHT22;27666;51.498;11.966;2023-08-06T14:28:50;24.40;93.50
17956;DHT22;27666;51.498;11.966;2023-08-06T14:31:40;24.30;93.80
17956;DHT22;27666;51.498;11.966;2023-08-06T14:34:26;24.20;94.00
17956;DHT22;27666;51.498;11.966;2023-08-06T14:37:13;24.10;94.70
17956;DHT22;27666;51.498;11.966;2023-08-06T14:39:59;24.10;94.80
17956;DHT22;27666;51.498;11.966;2023-08-06T14:42:46;24.10;94.70
17956;DHT22;27666;51.498;11.966;2023-08-06T14:45:37;24.30;94.90
17956;DHT22;27666;51.498;11.966;2023-08-06T14:48:24;24.20;94.40
17956;DHT22;27666;51.498;11.966;2023-08-06T14:51:10;24.10;95.10
17956;DHT22;27666;51.498;11.966;2023-08-06T14:53:57;24.00;94.50
17956;DHT22;27666;51.498;11.966;2023-08-06T14:56:43;24.00;95.30
17956;DHT22;27666;51.498;11.966;2023-08-06T14:59:30;24.10;95.50
17956;DHT22;27666;51.498;11.966;2023-08-06T15:02:19;24.20;95.40
17956;DHT22;27666;51.498;11.966;2023-08-06T15:05:06;24.10;94.70
17956;DHT22;27666;51.498;11.966;2023-08-06T15:07:53;23.70;97.80
17956;DHT22;27666;51.498;11.966;2023-08-06T15:10:39;23.50;98.90
17956;DHT22;27666;51.498;11.966;2023-08-06T15:13:26;23.40;99.60
17956;DHT22;27666;51.498;11.966;2023-08-06T15:16:13;23.30;99.80
17956;DHT22;27666;51.498;11.966;2023-08-06T15:19:01;23.20;99.90
17956;DHT22;27666;51.498;11.966;2023-08-06T15:21:47;23.10;99.90
17956;DHT22;27666;51.498;11.966;2023-08-06T15:24:34;23.10;99.90
17956;DHT22;27666;51.498;11.966;2023-08-06T15:27:24;23.00;99.90
17956;DHT22;27666;51.498;11.966;2023-08-06T15:30:11;22.90;99.90
17956;DHT22;27666;51.498;11.966;2023-08-06T15:32:58;22.70;99.90
17956;DHT22;27666;51.498;11.966;2023-08-06T15:35:47;22.70;99.90
17956;DHT22;27666;51.498;11.966;2023-08-06T15:38:33;22.60;99.90
17956;DHT22;27666;51.498;11.966;2023-08-06T15:41:20;22.50;99.90
17956;DHT22;27666;51.498;11.966;2023-08-06T15:44:06;22.60;99.90
17956;DHT22;27666;51.498;11.966;2023-08-06T15:46:52;22.70;99.90
17956;DHT22;27666;51.498;11.966;2023-08-06T15:49:39;22.90;99.90
17956;DHT22;27666;51.498;11.966;2023-08-06T15:52:27;22.80;99.90
17956;DHT22;27666;51.498;11.966;2023-08-06T15:58:01;22.90;99.90
17956;DHT22;27666;51.498;11.966;2023-08-06T16:00:47;22.80;99.90
17956;DHT22;27666;51.498;11.966;2023-08-06T16:03:34;22.70;99.90
17956;DHT22;27666;51.498;11.966;2023-08-06T16:06:20;22.70;99.90
17956;DHT22;27666;51.498;11.966;2023-08-06T16:09:09;22.60;99.90
17956;DHT22;27666;51.498;11.966;2023-08-06T16:11:55;22.50;99.90
17956;DHT22;27666;51.498;11.966;2023-08-06T16:14:42;22.40;99.90
17956;DHT22;27666;51.498;11.966;2023-08-06T16:17:28;22.30;99.90
17956;DHT22;27666;51.498;11.966;2023-08-06T16:20:15;22.20;99.90
17956;DHT22;27666;51.498;11.966;2023-08-06T16:23:02;22.10;99.90
17956;DHT22;27666;51.498;11.966;2023-08-06T16:25:51;22.20;99.90
17956;DHT22;27666;51.498;11.966;2023-08-06T16:28:37;22.10;99.90
17956;DHT22;27666;51.498;11.966;2023-08-06T16:31:24;22.00;99.90
17956;DHT22;27666;51.498;11.966;2023-08-06T16:34:10;22.00;99.90
17956;DHT22;27666;51.498;11.966;2023-08-06T16:36:57;22.10;99.90
17956;DHT22;27666;51.498;11.966;2023-08-06T16:39:44;22.10;99.90
17956;DHT22;27666;51.498;11.966;2023-08-06T16:42:32;22.10;99.90
17956;DHT22;27666;51.498;11.966;2023-08-06T16:45:18;22.00;99.90
17956;DHT22;27666;51.498;11.966;2023-08-06T16:48:05;21.90;99.90
17956;DHT22;27666;51.498;11.966;2023-08-06T16:50:52;21.90;99.90
17956;DHT22;27666;51.498;11.966;2023-08-06T16:53:39;21.80;99.90
17956;DHT22;27666;51.498;11.966;2023-08-06T16:56:28;21.70;99.90
17956;DHT22;27666;51.498;11.966;2023-08-06T16:59:16;21.60;99.90
17956;DHT22;27666;51.498;11.966;2023-08-06T17:02:03;21.60;99.90
17956;DHT22;27666;51.498;11.966;2023-08-06T17:04:50;21.50;99.90
17956;DHT22;27666;51.498;11.966;2023-08-06T17:07:36;21.50;99.90
17956;DHT22;27666;51.498;11.966;2023-08-06T17:10:23;21.50;99.90
17956;DHT22;27666;51.498;11.966;2023-08-06T17:13:09;21.50;99.90
17956;DHT22;27666;51.498;11.966;2023-08-06T17:16:06;21.60;99.90
17956;DHT22;27666;51.498;11.966;2023-08-06T17:18:53;21.50;99.90
17956;DHT22;27666;51.498;11.966;2023-08-06T17:21:40;21.40;99.90
17956;DHT22;27666;51.498;11.966;2023-08-06T17:24:26;21.20;99.90
17956;DHT22;27666;51.498;11.966;2023-08-06T17:27:13;21.20;99.90
17956;DHT22;27666;51.498;11.966;2023-08-06T17:29:59;21.20;99.90
17956;DHT22;27666;51.498;11.966;2023-08-06T17:32:47;21.20;99.90
17956;DHT22;27666;51.498;11.966;2023-08-06T17:35:33;21.20;99.90